Henderson, New York
Current Conditions -  °F | °C
As of 7:56 PM on Saturday 22 Nov 2014 (Local Time) from KART Reporting Station
Light Rain Light Rain  
Wind Chill:   Ceiling: 1600
Heat Index:   Visibility: 10mi
Dew Point:   Wind: 13mph
Humidity: 73%   Direction: 200°SSW
Pressure: 29.96"   Gusts: 22mph
Location:  43.85°N, 76.18°W
Report Text: KART 230056Z AUTO 20011G19KT 10SM -RA OVC016 06/01 A2996 RMK AO2 RAB14 SLP150 P0001 T00560011
Loading
Personal Weather Stations






























Interactive Weather Map New forecast layout! Learn more

10-Day Weather Forecast

Advertisements
Track Severe Weather on mobile